Time;durP1;ratioP1;P1;durP2;ratioP2;P2;SDS_P1;SDS_P2;PMS_P1;PMS_P2;Temp;Humidity;BMP_temperature;BMP_pressure;BME280_temperature;BME280_humidity;BME280_pressure;Samples;Min_cycle;Max_cycle;Signal;HPM_P1;HPM_P2
2021/04/26 00:02:13;;;;;;;1.30;0.55;;;;;;;-1.23;nan;102387.50;5000836;28;21117;-72
2021/04/26 00:04:38;;;;;;;0.73;0.57;;;;;;;-1.23;nan;102384.03;5001642;28;20088;-72
2021/04/26 00:07:04;;;;;;;2.17;0.60;;;;;;;-1.31;nan;102384.66;5000637;28;20080;-72
2021/04/26 00:09:30;;;;;;;1.88;1.52;;;;;;;-1.41;nan;102388.22;4999294;28;20104;-72
2021/04/26 00:11:55;;;;;;;1.42;0.60;;;;;;;-1.46;nan;102382.50;4977362;28;20164;-72
2021/04/26 00:14:21;;;;;;;2.42;0.70;;;;;;;-1.45;nan;102384.16;5000736;28;20033;-72
2021/04/26 00:16:47;;;;;;;4.65;1.08;;;;;;;-1.59;nan;102383.53;5001796;28;20030;-72
2021/04/26 00:19:12;;;;;;;6.65;1.00;;;;;;;-1.70;nan;102383.59;5001896;28;20029;-72
2021/04/26 00:21:38;;;;;;;3.35;0.80;;;;;;;-1.66;nan;102377.13;5000816;28;20038;-72
2021/04/26 00:24:05;;;;;;;4.95;0.82;;;;;;;-1.66;nan;102378.91;4998532;28;20080;-72
2021/04/26 00:26:30;;;;;;;0.70;0.70;;;;;;;-1.73;nan;102375.13;4981059;28;20025;-72
2021/04/26 00:28:56;;;;;;;3.08;0.95;;;;;;;-1.88;nan;102375.44;5000095;28;20029;-72
2021/04/26 00:31:21;;;;;;;3.25;0.90;;;;;;;-1.91;nan;102375.72;5000397;28;20030;-72
2021/04/26 00:33:47;;;;;;;1.45;0.70;;;;;;;-2.03;nan;102374.09;4997046;28;20029;-72
2021/04/26 00:36:13;;;;;;;3.00;0.60;;;;;;;-2.02;nan;102372.28;4982657;28;20028;-72
2021/04/26 00:38:38;;;;;;;4.10;0.75;;;;;;;-2.04;nan;102368.97;4987449;28;20480;-72
2021/04/26 00:41:04;;;;;;;4.30;1.02;;;;;;;-2.09;nan;102363.25;4983180;28;20029;-72
2021/04/26 00:43:29;;;;;;;1.00;0.73;;;;;;;-2.14;nan;102369.72;4998862;28;20034;-73
2021/04/26 00:45:55;;;;;;;1.13;0.50;;;;;;;-2.15;nan;102359.34;4981571;28;20034;-73
2021/04/26 00:48:20;;;;;;;0.60;0.47;;;;;;;-2.20;nan;102362.34;4999085;28;20034;-72
2021/04/26 00:50:46;;;;;;;2.65;0.85;;;;;;;-2.16;nan;102366.38;4999610;28;20026;-73
2021/04/26 00:53:12;;;;;;;4.68;0.90;;;;;;;-2.20;nan;102357.06;5001883;28;20049;-72
2021/04/26 00:55:39;;;;;;;1.88;0.65;;;;;;;-2.30;nan;102356.19;4977174;28;20041;-72
2021/04/26 00:58:05;;;;;;;1.98;0.60;;;;;;;-2.26;nan;102356.75;5002157;28;20044;-72
2021/04/26 01:00:31;;;;;;;2.40;0.70;;;;;;;-2.26;nan;102349.72;5002356;28;20026;-72
2021/04/26 01:02:57;;;;;;;2.28;0.60;;;;;;;-2.28;nan;102351.63;5001975;28;20030;-72
2021/04/26 01:05:27;;;;;;;1.23;0.63;;;;;;;-2.29;nan;102349.97;5001445;28;20095;-73
2021/04/26 01:07:53;;;;;;;2.35;1.02;;;;;;;-2.36;nan;102354.03;4999800;28;20127;-73
2021/04/26 01:10:22;;;;;;;3.78;0.75;;;;;;;-2.41;nan;102352.75;4998859;28;20496;-73
2021/04/26 01:13:07;;;;;;;1.55;0.90;;;;;;;-2.38;nan;102353.31;4982733;28;20065;-72
2021/04/26 01:15:48;;;;;;;2.28;0.98;;;;;;;-2.31;nan;102359.75;4999550;28;20065;-73
2021/04/26 01:18:39;;;;;;;0.77;0.70;;;;;;;-2.24;nan;102349.59;4998459;28;20030;-72
2021/04/26 01:21:38;;;;;;;2.60;0.70;;;;;;;-2.26;nan;102346.25;4999877;28;20029;-73
2021/04/26 01:24:26;;;;;;;4.50;0.93;;;;;;;-2.24;nan;102354.84;4998499;28;20484;-72
2021/04/26 01:26:57;;;;;;;1.85;0.60;;;;;;;-2.29;nan;102349.97;4999290;28;20034;-72
2021/04/26 01:29:38;;;;;;;3.50;0.60;;;;;;;-2.34;nan;102340.78;5000936;28;20038;-73
2021/04/26 01:32:17;;;;;;;3.50;0.98;;;;;;;-2.45;nan;102339.03;5001870;28;20030;-72
2021/04/26 01:34:45;;;;;;;1.95;0.85;;;;;;;-2.52;nan;102343.09;4995974;28;20026;-72
2021/04/26 01:37:13;;;;;;;3.47;0.90;;;;;;;-2.58;nan;102343.59;4995705;28;20385;-72
2021/04/26 01:39:41;;;;;;;1.60;0.70;;;;;;;-2.57;nan;102342.66;4986603;28;20124;-72
2021/04/26 01:42:08;;;;;;;2.60;0.70;;;;;;;-2.51;nan;102344.78;5000054;28;20026;-72
2021/04/26 01:44:35;;;;;;;2.35;0.80;;;;;;;-2.56;nan;102345.16;4985623;28;20452;-72
2021/04/26 01:47:01;;;;;;;3.75;0.90;;;;;;;-2.55;nan;102331.06;4994822;28;20022;-72
2021/04/26 01:49:28;;;;;;;2.03;0.63;;;;;;;-2.56;nan;102339.06;4981015;28;20092;-72
2021/04/26 01:51:55;;;;;;;1.77;0.70;;;;;;;-2.61;nan;102334.19;5000070;28;20248;-73
2021/04/26 01:54:21;;;;;;;1.13;0.70;;;;;;;-2.62;nan;102334.31;5000174;28;20723;-73
2021/04/26 01:56:49;;;;;;;1.58;0.85;;;;;;;-2.68;nan;102332.19;5004318;28;20029;-73
2021/04/26 01:59:15;;;;;;;3.42;0.68;;;;;;;-2.65;nan;102334.56;4998677;28;20029;-73
2021/04/26 02:01:41;;;;;;;4.95;1.05;;;;;;;-2.63;nan;102332.66;4982215;28;20036;-72
2021/04/26 02:04:07;;;;;;;2.00;1.02;;;;;;;-2.76;nan;102322.28;4999558;28;20034;-72
2021/04/26 02:06:34;;;;;;;1.67;0.85;;;;;;;-2.79;nan;102317.31;4996025;28;20033;-73
2021/04/26 02:09:01;;;;;;;3.90;0.90;;;;;;;-2.80;nan;102307.75;5006970;28;20034;-72
2021/04/26 02:11:26;;;;;;;1.35;0.70;;;;;;;-2.83;nan;102311.47;5001145;28;20036;-72
2021/04/26 02:13:54;;;;;;;1.65;0.90;;;;;;;-2.84;nan;102301.09;4982962;28;20021;-72
2021/04/26 02:16:20;;;;;;;1.13;0.63;;;;;;;-2.87;nan;102298.69;4986819;28;20026;-72
2021/04/26 02:18:46;;;;;;;1.50;0.90;;;;;;;-2.94;nan;102298.38;4999444;28;20034;-73
2021/04/26 02:21:11;;;;;;;2.55;0.68;;;;;;;-2.93;nan;102304.44;4994413;28;20100;-72
2021/04/26 02:23:37;;;;;;;5.65;1.33;;;;;;;-2.95;nan;102295.88;4982279;28;20029;-72
2021/04/26 02:26:03;;;;;;;2.85;0.90;;;;;;;-2.97;nan;102298.63;5001286;28;20037;-72
2021/04/26 02:28:28;;;;;;;0.93;0.82;;;;;;;-2.94;nan;102303.63;5002129;28;20033;-72
2021/04/26 02:30:56;;;;;;;1.52;0.95;;;;;;;-2.95;nan;102295.88;4997838;28;20073;-73
2021/04/26 02:33:33;;;;;;;4.90;1.52;;;;;;;-2.99;nan;102297.06;4998924;28;20032;-72
2021/04/26 02:36:10;;;;;;;1.02;0.70;;;;;;;-3.03;nan;102293.03;4998855;28;20034;-72
2021/04/26 02:38:51;;;;;;;2.10;1.05;;;;;;;-3.07;nan;102289.78;4997096;28;20109;-72
2021/04/26 02:41:24;;;;;;;3.03;0.90;;;;;;;-3.08;nan;102290.75;5000545;28;20021;-72
2021/04/26 02:43:55;;;;;;;1.70;0.90;;;;;;;-3.06;nan;102287.06;4996131;28;20023;-72
2021/04/26 02:46:24;;;;;;;1.98;0.60;;;;;;;-3.07;nan;102288.00;5000229;28;20026;-72
2021/04/26 02:48:50;;;;;;;2.35;1.08;;;;;;;-3.10;nan;102287.41;4979665;28;20030;-72
2021/04/26 02:51:18;;;;;;;1.02;0.82;;;;;;;-3.16;nan;102288.75;4994478;28;20040;-72
2021/04/26 02:53:44;;;;;;;3.78;1.15;;;;;;;-3.18;nan;102290.66;4999045;28;20018;-72
2021/04/26 02:56:14;;;;;;;1.63;0.90;;;;;;;-3.24;nan;102293.75;4997475;28;20033;-72
2021/04/26 02:58:44;;;;;;;4.18;0.80;;;;;;;-3.22;nan;102291.03;4998593;28;20105;-73
2021/04/26 03:01:11;;;;;;;4.28;0.80;;;;;;;-3.28;nan;102287.09;4996540;28;20033;-72
2021/04/26 03:03:39;;;;;;;4.85;1.05;;;;;;;-3.29;nan;102288.03;4997738;28;20466;-72
2021/04/26 03:06:06;;;;;;;1.33;0.80;;;;;;;-3.28;nan;102294.13;4982221;28;20033;-72
2021/04/26 03:08:33;;;;;;;6.80;0.80;;;;;;;-3.31;nan;102292.56;4999474;28;20089;-72
2021/04/26 03:10:59;;;;;;;3.35;0.80;;;;;;;-3.35;nan;102286.75;4996784;28;20079;-72
2021/04/26 03:13:29;;;;;;;3.88;1.02;;;;;;;-3.40;nan;102290.69;4985056;28;20018;-72
2021/04/26 03:15:55;;;;;;;2.30;1.10;;;;;;;-3.43;nan;102294.34;4998448;28;20041;-72
2021/04/26 03:18:21;;;;;;;3.17;0.98;;;;;;;-3.45;nan;102288.41;5000374;28;20103;-72
2021/04/26 03:20:48;;;;;;;1.95;1.17;;;;;;;-3.51;nan;102283.63;4998659;28;20117;-72
2021/04/26 03:23:21;;;;;;;2.58;0.90;;;;;;;-3.53;nan;102282.09;4980935;28;20033;-72
2021/04/26 03:25:46;;;;;;;2.15;1.40;;;;;;;-3.50;nan;102285.31;4997892;28;20053;-72
2021/04/26 03:28:13;;;;;;;3.03;0.80;;;;;;;-3.53;nan;102284.72;4999021;28;20485;-72
2021/04/26 03:30:39;;;;;;;2.72;1.00;;;;;;;-3.53;nan;102282.94;4991466;28;20064;-72
2021/04/26 03:33:05;;;;;;;2.30;1.17;;;;;;;-3.53;nan;102282.09;4980257;28;20029;-72
2021/04/26 03:35:31;;;;;;;2.30;1.05;;;;;;;-3.58;nan;102281.63;4978318;28;20029;-72
2021/04/26 03:37:57;;;;;;;1.63;1.23;;;;;;;-3.58;nan;102281.63;4998770;28;20037;-72
2021/04/26 03:40:26;;;;;;;6.68;1.33;;;;;;;-3.57;nan;102285.91;4998759;28;20029;-72
2021/04/26 03:42:57;;;;;;;5.10;1.25;;;;;;;-3.59;nan;102278.16;4998248;28;20053;-72
2021/04/26 03:45:24;;;;;;;10.77;1.20;;;;;;;-3.65;nan;102276.84;4977293;28;20037;-72
2021/04/26 03:47:50;;;;;;;1.88;1.20;;;;;;;-3.60;nan;102279.09;4997703;28;20033;-72
2021/04/26 03:50:17;;;;;;;4.13;0.95;;;;;;;-3.61;nan;102273.97;4993722;28;20026;-72
2021/04/26 03:52:42;;;;;;;6.25;1.15;;;;;;;-3.59;nan;102272.94;4996572;28;20026;-72
2021/04/26 03:55:11;;;;;;;2.47;0.75;;;;;;;-3.60;nan;102271.22;4998780;28;20499;-72
2021/04/26 03:57:37;;;;;;;2.10;1.42;;;;;;;-3.56;nan;102277.09;4984485;28;20029;-72
2021/04/26 04:00:05;;;;;;;4.80;1.05;;;;;;;-3.53;nan;102275.06;4996847;28;20156;-72
2021/04/26 04:02:30;;;;;;;3.88;1.05;;;;;;;-3.50;nan;102285.31;4997695;28;20034;-72
2021/04/26 04:04:56;;;;;;;1.90;1.00;;;;;;;-3.45;nan;102285.78;4995302;28;20084;-72
2021/04/26 04:07:22;;;;;;;3.47;0.88;;;;;;;-3.29;nan;102287.19;4983535;28;20049;-72
2021/04/26 04:09:48;;;;;;;3.40;1.20;;;;;;;-3.25;nan;102286.84;4979407;28;20083;-72
2021/04/26 04:12:13;;;;;;;12.48;1.77;;;;;;;-3.18;nan;102285.41;5000307;28;20535;-72
2021/04/26 04:14:39;;;;;;;5.68;1.15;;;;;;;-3.05;nan;102290.53;4998390;28;20022;-72
2021/04/26 04:17:05;;;;;;;2.67;1.17;;;;;;;-2.97;nan;102293.38;5000289;28;20029;-72
2021/04/26 04:19:31;;;;;;;5.75;1.65;;;;;;;-2.85;nan;102295.03;4998321;28;20548;-72
2021/04/26 04:21:56;;;;;;;4.30;1.00;;;;;;;-2.74;nan;102292.34;4992121;28;20029;-72
2021/04/26 04:24:22;;;;;;;5.30;1.00;;;;;;;-2.59;nan;102287.66;4983557;28;20026;-72
2021/04/26 04:26:47;;;;;;;1.92;0.93;;;;;;;-2.45;nan;102292.63;4996799;28;20030;-72
2021/04/26 04:29:13;;;;;;;4.47;1.42;;;;;;;-2.28;nan;102293.03;5000534;28;20401;-72
2021/04/26 04:31:39;;;;;;;4.07;1.20;;;;;;;-2.14;nan;102290.94;4996805;28;20037;-72
2021/04/26 04:34:04;;;;;;;4.70;1.10;;;;;;;-1.97;nan;102280.81;5000503;28;20103;-72
2021/04/26 04:36:30;;;;;;;6.22;1.17;;;;;;;-1.83;nan;102289.19;4999772;28;20095;-73
2021/04/26 04:38:55;;;;;;;6.40;1.50;;;;;;;-1.67;nan;102291.34;4980848;28;20030;-72
2021/04/26 04:41:21;;;;;;;11.35;1.95;;;;;;;-1.55;nan;102285.06;4986073;28;20654;-72
2021/04/26 04:43:46;;;;;;;5.63;1.83;;;;;;;-1.38;nan;102285.41;4999925;28;20041;-72
2021/04/26 04:46:12;;;;;;;3.33;1.17;;;;;;;-1.16;nan;102287.00;5003477;28;20033;-73
2021/04/26 04:48:37;;;;;;;1.73;1.27;;;;;;;-1.02;nan;102292.72;4982254;28;20111;-72
2021/04/26 04:51:04;;;;;;;3.55;1.75;;;;;;;-0.87;nan;102287.09;5002657;28;20030;-73
2021/04/26 04:53:29;;;;;;;3.08;1.20;;;;;;;-0.77;nan;102290.56;5005215;28;20088;-73
2021/04/26 04:55:55;;;;;;;7.07;1.65;;;;;;;-0.91;nan;102297.03;5004386;28;20108;-73
2021/04/26 04:58:20;;;;;;;1.65;1.20;;;;;;;-0.75;nan;102299.16;5001544;28;20022;-73
2021/04/26 05:00:46;;;;;;;2.83;0.80;;;;;;;-0.55;nan;102290.31;4984020;28;20381;-73
2021/04/26 05:03:12;;;;;;;5.97;1.58;;;;;;;-0.31;nan;102295.19;5000714;28;20026;-73
2021/04/26 05:05:37;;;;;;;4.53;1.50;;;;;;;-0.20;nan;102286.28;4997075;28;20025;-73
2021/04/26 05:08:03;;;;;;;3.92;1.05;;;;;;;-0.05;nan;102292.78;5002960;28;20484;-73
2021/04/26 05:10:29;;;;;;;5.28;1.45;;;;;;;0.09;nan;102289.72;4985234;28;20113;-73
2021/04/26 05:12:55;;;;;;;3.33;1.40;;;;;;;0.22;nan;102287.63;4984025;28;20124;-73
2021/04/26 05:15:20;;;;;;;3.65;1.33;;;;;;;0.43;nan;102292.69;4973172;28;20057;-73
2021/04/26 05:17:46;;;;;;;5.70;1.98;;;;;;;0.61;nan;102292.78;4999280;28;20433;-73
2021/04/26 05:20:12;;;;;;;3.72;1.63;;;;;;;0.80;nan;102290.03;4990555;28;20038;-73
2021/04/26 05:22:38;;;;;;;5.65;2.00;;;;;;;0.81;nan;102293.50;4993557;28;20033;-72
2021/04/26 05:25:06;;;;;;;4.75;2.85;;;;;;;1.11;nan;102295.03;4993970;28;20036;-72
2021/04/26 05:27:32;;;;;;;4.22;1.30;;;;;;;1.34;nan;102304.19;4994586;28;20617;-72
2021/04/26 05:29:57;;;;;;;5.13;1.33;;;;;;;1.50;nan;102292.94;4994046;28;20054;-72
2021/04/26 05:32:23;;;;;;;2.72;0.90;;;;;;;1.73;nan;102296.78;4994906;28;20050;-72
2021/04/26 05:34:48;;;;;;;3.55;1.55;;;;;;;1.76;nan;102293.00;4994607;28;20112;-72
2021/04/26 05:37:14;;;;;;;2.88;1.40;;;;;;;1.89;nan;102292.63;4994848;28;20033;-72
2021/04/26 05:39:40;;;;;;;5.28;1.25;;;;;;;1.85;nan;102297.38;4995618;28;20114;-72
2021/04/26 05:42:05;;;;;;;3.13;0.68;;;;;;;1.97;nan;102285.56;4980448;28;20424;-71
2021/04/26 05:44:31;;;;;;;3.92;0.98;;;;;;;2.13;nan;102293.63;4995351;28;20146;-71
2021/04/26 05:46:56;;;;;;;4.45;0.88;;;;;;;2.30;nan;102293.72;4996269;28;20034;-71
2021/04/26 05:49:22;;;;;;;1.95;0.77;;;;;;;2.47;nan;102284.91;4996508;28;20030;-71
2021/04/26 05:51:47;;;;;;;3.90;0.90;;;;;;;2.75;nan;102288.19;4999497;28;20038;-71
2021/04/26 05:54:13;;;;;;;2.13;0.80;;;;;;;2.86;nan;102287.91;4996561;28;20037;-72
2021/04/26 05:56:39;;;;;;;3.83;1.08;;;;;;;3.10;nan;102289.81;4995894;28;20030;-72
2021/04/26 05:59:04;;;;;;;7.18;1.10;;;;;;;3.26;nan;102292.50;4996406;28;20040;-72
2021/04/26 06:01:30;;;;;;;3.08;0.90;;;;;;;3.40;nan;102292.84;4997411;28;20184;-71
2021/04/26 06:03:55;;;;;;;3.17;0.90;;;;;;;3.67;nan;102292.56;5000015;28;20026;-71
2021/04/26 06:06:21;;;;;;;0.98;0.60;;;;;;;3.90;nan;102298.03;4998117;28;20107;-71
2021/04/26 06:08:46;;;;;;;5.78;1.02;;;;;;;3.90;nan;102282.94;4981631;28;20030;-72
2021/04/26 06:11:12;;;;;;;2.15;0.70;;;;;;;3.76;nan;102290.72;4995961;28;20026;-72
2021/04/26 06:13:37;;;;;;;2.63;0.80;;;;;;;3.88;nan;102284.13;4998545;28;20673;-71
2021/04/26 06:16:03;;;;;;;1.23;0.80;;;;;;;4.20;nan;102283.25;4996900;28;20027;-71
2021/04/26 06:18:29;;;;;;;4.28;0.95;;;;;;;4.35;nan;102286.06;4984691;28;20128;-72
2021/04/26 06:20:54;;;;;;;2.65;0.88;;;;;;;4.47;nan;102285.50;4999152;28;20038;-72
2021/04/26 06:23:21;;;;;;;5.38;1.17;;;;;;;4.43;nan;102288.69;4992287;28;20036;-73
2021/04/26 06:25:47;;;;;;;2.92;1.13;;;;;;;4.45;nan;102287.50;4997633;28;20049;-72
2021/04/26 06:28:14;;;;;;;9.45;1.10;;;;;;;4.83;nan;102280.56;4995199;28;20061;-72
2021/04/26 06:30:41;;;;;;;2.10;1.20;;;;;;;5.05;nan;102283.47;4975174;28;20030;-72
2021/04/26 06:33:15;;;;;;;2.75;0.88;;;;;;;5.16;nan;102285.72;4997641;28;20484;-73
2021/04/26 06:35:44;;;;;;;3.50;1.10;;;;;;;5.31;nan;102283.97;4995631;28;20034;-73
2021/04/26 06:38:10;;;;;;;2.40;0.80;;;;;;;5.52;nan;102280.66;4995479;28;20041;-72
2021/04/26 06:40:36;;;;;;;2.70;1.10;;;;;;;5.63;nan;102282.09;4977207;28;20377;-72
2021/04/26 06:43:02;;;;;;;5.28;1.25;;;;;;;5.66;nan;102282.56;4998049;28;20026;-72
2021/04/26 06:45:28;;;;;;;3.55;1.30;;;;;;;5.57;nan;102281.00;4981796;28;20089;-73
2021/04/26 06:47:54;;;;;;;2.92;0.82;;;;;;;5.90;nan;102286.06;4994024;28;20029;-73
2021/04/26 06:50:21;;;;;;;3.53;0.85;;;;;;;6.10;nan;102278.38;4995145;28;20033;-73
2021/04/26 06:52:48;;;;;;;1.70;0.82;;;;;;;6.21;nan;102276.13;4994700;28;20512;-71
2021/04/26 06:55:14;;;;;;;2.67;1.05;;;;;;;6.35;nan;102275.31;4997697;28;20512;-72
2021/04/26 06:57:40;;;;;;;2.15;1.08;;;;;;;6.30;nan;102275.03;4976566;28;20097;-71
2021/04/26 07:00:06;;;;;;;5.72;1.40;;;;;;;6.48;nan;102280.00;4996694;28;20128;-74
2021/04/26 07:02:33;;;;;;;1.30;0.70;;;;;;;6.52;nan;102270.63;5002958;28;20030;-76
2021/04/26 07:04:59;;;;;;;6.63;1.20;;;;;;;6.58;nan;102272.56;5001286;28;20029;-74
2021/04/26 07:07:24;;;;;;;1.90;0.98;;;;;;;6.77;nan;102271.16;4991786;28;20033;-73
2021/04/26 07:09:51;;;;;;;3.10;1.35;;;;;;;7.03;nan;102272.50;4995356;28;21101;-73
2021/04/26 07:12:17;;;;;;;3.95;1.27;;;;;;;7.17;nan;102263.63;4990636;28;20120;-73
2021/04/26 07:14:42;;;;;;;3.35;0.95;;;;;;;7.35;nan;102276.53;4995695;28;20030;-73
2021/04/26 07:17:08;;;;;;;1.75;1.00;;;;;;;7.36;nan;102270.19;4991208;28;20041;-73
2021/04/26 07:19:34;;;;;;;2.72;0.88;;;;;;;7.54;nan;102268.75;4972330;28;20030;-74
2021/04/26 07:22:00;;;;;;;1.45;0.90;;;;;;;7.60;nan;102263.66;4989680;28;20045;-74
2021/04/26 07:24:26;;;;;;;2.72;0.70;;;;;;;7.66;nan;102271.72;4992738;28;20026;-74
2021/04/26 07:26:51;;;;;;;1.65;1.25;;;;;;;7.89;nan;102261.66;4991574;28;20030;-74
2021/04/26 07:29:17;;;;;;;3.65;1.15;;;;;;;7.64;nan;102259.59;4994921;28;20026;-74
2021/04/26 07:31:43;;;;;;;3.53;1.23;;;;;;;7.56;nan;102261.41;4995765;28;20088;-74
2021/04/26 07:34:08;;;;;;;2.30;1.30;;;;;;;7.73;nan;102263.81;4969286;28;20136;-74
2021/04/26 07:36:34;;;;;;;1.90;1.15;;;;;;;7.90;nan;102262.50;4993005;28;20029;-74
2021/04/26 07:39:00;;;;;;;4.50;0.90;;;;;;;8.10;nan;102257.31;4998186;28;20030;-74
2021/04/26 07:41:25;;;;;;;3.17;0.95;;;;;;;8.40;nan;102264.09;4998438;28;20024;-75
2021/04/26 07:43:51;;;;;;;1.65;0.80;;;;;;;8.40;nan;102260.59;4996322;28;20130;-74
2021/04/26 07:46:17;;;;;;;0.95;0.73;;;;;;;8.28;nan;102260.31;5001882;28;20397;-74
2021/04/26 07:48:42;;;;;;;5.07;1.30;;;;;;;8.15;nan;102255.69;4997579;28;20108;-76
2021/04/26 07:51:08;;;;;;;2.80;1.08;;;;;;;8.41;nan;102254.22;4981561;28;20030;-74
2021/04/26 07:53:34;;;;;;;1.45;0.80;;;;;;;8.53;nan;102258.00;4976697;28;20029;-75
2021/04/26 07:56:00;;;;;;;4.00;1.40;;;;;;;8.42;nan;102250.53;4999482;28;20378;-73
2021/04/26 07:58:26;;;;;;;3.53;1.63;;;;;;;8.53;nan;102257.19;5000330;28;20018;-73
2021/04/26 08:00:51;;;;;;;5.05;1.10;;;;;;;8.98;nan;102256.56;4998893;28;20026;-73
2021/04/26 08:03:17;;;;;;;2.67;0.90;;;;;;;8.89;nan;102241.72;5001639;28;20033;-74
2021/04/26 08:05:43;;;;;;;1.90;0.82;;;;;;;8.54;nan;102245.47;5000641;28;20025;-74
2021/04/26 08:08:09;;;;;;;1.77;0.80;;;;;;;8.68;nan;102242.69;4980898;28;20448;-73
2021/04/26 08:10:35;;;;;;;3.22;0.55;;;;;;;8.96;nan;102242.56;4993958;28;20029;-74
2021/04/26 08:13:01;;;;;;;1.30;0.70;;;;;;;9.33;nan;102246.56;5000216;28;20033;-74
2021/04/26 08:15:27;;;;;;;0.57;0.52;;;;;;;9.58;nan;102237.97;5002525;28;20373;-74
2021/04/26 08:17:52;;;;;;;3.17;0.88;;;;;;;9.93;nan;102234.06;4981956;28;20030;-74
2021/04/26 08:20:18;;;;;;;1.27;0.50;;;;;;;10.06;nan;102232.41;4999230;28;20037;-74
2021/04/26 08:22:44;;;;;;;2.05;1.20;;;;;;;9.89;nan;102230.16;5001257;28;20033;-76
2021/04/26 08:25:10;;;;;;;1.30;0.95;;;;;;;10.11;nan;102224.56;4980334;28;20129;-74
2021/04/26 08:27:36;;;;;;;7.47;3.45;;;;;;;10.05;nan;102230.72;4994540;28;20476;-74
2021/04/26 08:30:03;;;;;;;2.25;0.95;;;;;;;9.74;nan;102234.06;4998565;28;20034;-74
2021/04/26 08:32:29;;;;;;;4.50;1.08;;;;;;;9.31;nan;102232.56;5005001;28;20105;-74
2021/04/26 08:34:54;;;;;;;3.22;1.10;;;;;;;8.43;nan;102230.81;5000647;28;20112;-74
2021/04/26 08:37:20;;;;;;;3.72;1.10;;;;;;;8.78;nan;102235.09;5000068;28;20397;-74
2021/04/26 08:39:46;;;;;;;2.67;1.40;;;;;;;9.13;nan;102231.50;5003756;28;20096;-75
2021/04/26 08:42:15;;;;;;;2.13;0.90;;;;;;;9.72;nan;102233.44;4997244;28;20100;-73
2021/04/26 08:44:44;;;;;;;2.42;0.70;;;;;;;9.76;nan;102232.81;4998854;28;20025;-75
2021/04/26 08:47:10;;;;;;;1.92;0.90;;;;;;;9.24;nan;102223.72;5002456;28;20095;-75
2021/04/26 08:49:36;;;;;;;5.05;1.40;;;;;;;8.62;nan;102232.78;5001691;28;20034;-74
2021/04/26 08:52:03;;;;;;;5.32;0.90;;;;;;;8.70;nan;102229.13;5000763;28;20045;-74
2021/04/26 08:54:28;;;;;;;4.47;0.77;;;;;;;8.75;nan;102229.34;5001058;28;20026;-74
2021/04/26 08:56:54;;;;;;;1.25;0.80;;;;;;;8.75;nan;102223.97;4980762;28;20044;-75
2021/04/26 08:59:20;;;;;;;2.90;0.70;;;;;;;9.34;nan;102218.81;4999118;28;20030;-74
2021/04/26 09:01:48;;;;;;;0.77;0.68;;;;;;;9.17;nan;102225.56;4985848;28;20506;-75
2021/04/26 09:04:15;;;;;;;4.70;0.90;;;;;;;8.83;nan;102223.81;5001046;28;20032;-76
2021/04/26 09:07:03;;;;;;;1.95;0.85;;;;;;;8.29;nan;102218.41;5004786;28;20113;-75
2021/04/26 09:09:34;;;;;;;1.63;0.60;;;;;;;8.74;nan;102227.69;4983194;28;20728;-74
2021/04/26 09:11:59;;;;;;;1.90;1.10;;;;;;;8.95;nan;102224.88;4980312;28;20413;-74
2021/04/26 09:14:38;;;;;;;4.90;1.00;;;;;;;9.25;nan;102220.03;4995470;28;20026;-74
2021/04/26 09:17:30;;;;;;;7.43;1.00;;;;;;;9.85;nan;102228.06;4979030;28;20587;-76
2021/04/26 09:20:06;;;;;;;1.17;0.77;;;;;;;10.81;nan;102217.56;4979447;28;20030;-74
2021/04/26 09:22:50;;;;;;;2.47;0.80;;;;;;;11.15;nan;102217.16;4994433;28;20377;-74
2021/04/26 09:25:31;;;;;;;0.98;0.65;;;;;;;10.70;nan;102205.63;5001845;28;20036;-76
2021/04/26 09:28:00;;;;;;;3.28;0.85;;;;;;;10.64;nan;102214.53;4997301;28;20070;-75
2021/04/26 09:30:43;;;;;;;2.15;0.90;;;;;;;10.66;nan;102200.91;4997433;28;20026;-75
2021/04/26 09:33:38;;;;;;;2.55;0.95;;;;;;;10.17;nan;102207.63;4999681;28;20489;-75
2021/04/26 09:36:14;;;;;;;1.08;0.60;;;;;;;10.54;nan;102211.47;4978007;28;20637;-75
2021/04/26 09:38:52;;;;;;;1.17;0.60;;;;;;;10.03;nan;102214.03;4982655;28;20061;-76
2021/04/26 09:41:27;;;;;;;1.88;0.60;;;;;;;9.75;nan;102215.13;4998828;28;20200;-76
2021/04/26 09:44:08;;;;;;;1.98;0.90;;;;;;;9.67;nan;102213.47;4984658;28;20109;-76
2021/04/26 09:46:49;;;;;;;1.73;0.70;;;;;;;9.02;nan;102214.22;5002068;28;20034;-78
2021/04/26 09:49:16;;;;;;;4.25;0.60;;;;;;;9.58;nan;102219.25;5002594;28;20125;-76
2021/04/26 09:51:44;;;;;;;2.08;0.60;;;;;;;9.37;nan;102210.38;4987386;28;20025;-76
2021/04/26 09:54:11;;;;;;;2.92;0.95;;;;;;;9.40;nan;102206.47;5005093;28;20057;-76
2021/04/26 09:56:45;;;;;;;0.80;0.70;;;;;;;9.79;nan;102204.81;5003208;28;20036;-76
2021/04/26 09:59:13;;;;;;;1.23;0.52;;;;;;;9.87;nan;102207.25;5004478;28;20049;-77
2021/04/26 10:01:40;;;;;;;4.57;0.70;;;;;;;9.36;nan;102203.38;4987915;28;20527;-78
2021/04/26 10:04:08;;;;;;;2.33;0.70;;;;;;;9.90;nan;102199.66;5000193;28;20484;-75
2021/04/26 10:06:33;;;;;;;2.58;0.75;;;;;;;10.48;nan;102191.72;5004558;28;20843;-77
2021/04/26 10:09:05;;;;;;;2.67;0.77;;;;;;;10.99;nan;102203.44;4998369;28;20032;-77
2021/04/26 10:11:32;;;;;;;1.10;0.75;;;;;;;11.46;nan;102192.16;5002304;28;20038;-77
2021/04/26 10:13:59;;;;;;;1.00;0.65;;;;;;;11.94;nan;102180.00;5004252;28;20026;-78
2021/04/26 10:16:56;;;;;;;1.67;0.90;;;;;;;12.18;nan;102192.53;5002906;28;20584;-77
2021/04/26 10:19:34;;;;;;;5.32;0.95;;;;;;;12.24;nan;102183.59;4968368;28;20045;-76
2021/04/26 10:22:02;;;;;;;5.18;1.33;;;;;;;12.06;nan;102187.09;4995405;28;20576;-77
2021/04/26 10:24:30;;;;;;;5.47;0.82;;;;;;;11.99;nan;102190.88;5002192;28;20033;-76
2021/04/26 10:26:56;;;;;;;5.65;1.10;;;;;;;12.07;nan;102190.63;4998849;28;20036;-77
2021/04/26 10:29:28;;;;;;;2.75;0.80;;;;;;;12.22;nan;102185.69;4996473;28;20057;-77
2021/04/26 10:31:59;;;;;;;0.70;0.57;;;;;;;11.73;nan;102181.22;4984726;28;20072;-76
2021/04/26 10:34:48;;;;;;;4.18;0.50;;;;;;;11.77;nan;102188.59;4996129;28;21367;-78
2021/04/26 10:37:17;;;;;;;1.90;0.73;;;;;;;12.09;nan;102175.91;4983263;28;20527;-78
2021/04/26 10:40:01;;;;;;;2.15;0.43;;;;;;;12.38;nan;102177.00;4993517;28;20038;-76
2021/04/26 10:42:31;;;;;;;1.65;0.60;;;;;;;11.83;nan;102164.59;4993993;28;20037;-78
2021/04/26 10:44:57;;;;;;;2.60;0.60;;;;;;;11.98;nan;102170.44;4996715;28;20108;-79
2021/04/26 10:47:24;;;;;;;0.98;0.60;;;;;;;11.82;nan;102168.34;5003836;28;20116;-76
2021/04/26 10:49:53;;;;;;;2.38;0.73;;;;;;;12.03;nan;102168.75;4996693;28;21985;-78
2021/04/26 10:52:30;;;;;;;3.03;0.77;;;;;;;11.77;nan;102163.59;5003225;28;20505;-76
2021/04/26 10:55:00;;;;;;;1.40;0.60;;;;;;;11.47;nan;102166.97;4998898;28;20405;-77
2021/04/26 10:57:51;;;;;;;2.03;0.50;;;;;;;11.35;nan;102178.63;4979928;28;20030;-77
2021/04/26 11:02:55;;;;;;;0.80;0.70;;;;;;;11.20;nan;102177.09;5002792;28;20045;-76
2021/04/26 11:05:24;;;;;;;1.90;0.40;;;;;;;11.71;nan;102180.59;5002795;28;20037;-77
2021/04/26 11:08:03;;;;;;;0.45;0.38;;;;;;;11.87;nan;102176.56;5004736;28;20033;-76
2021/04/26 11:10:30;;;;;;;1.27;0.60;;;;;;;11.74;nan;102175.63;4979919;28;20666;-77
2021/04/26 11:13:01;;;;;;;2.83;0.57;;;;;;;11.85;nan;102167.88;5002033;28;20037;-76
2021/04/26 11:15:28;;;;;;;1.65;0.50;;;;;;;12.07;nan;102172.63;4993873;28;20037;-76
2021/04/26 11:17:55;;;;;;;1.27;0.63;;;;;;;12.13;nan;102170.09;5004404;28;20026;-76
2021/04/26 11:20:25;;;;;;;1.38;0.55;;;;;;;12.49;nan;102177.31;5000636;28;20108;-76
2021/04/26 11:22:53;;;;;;;2.15;0.90;;;;;;;12.85;nan;102166.47;5009250;28;20104;-78
2021/04/26 11:25:35;;;;;;;0.90;0.43;;;;;;;13.43;nan;102168.53;4992188;28;20492;-77
2021/04/26 11:28:02;;;;;;;1.38;0.70;;;;;;;13.67;nan;102165.88;4987195;28;20042;-75
2021/04/26 11:30:30;;;;;;;0.88;0.60;;;;;;;13.54;nan;102166.91;4983885;28;20037;-75
2021/04/26 11:33:02;;;;;;;0.68;0.50;;;;;;;13.65;nan;102159.91;4997043;28;20797;-77
2021/04/26 11:35:29;;;;;;;1.70;0.68;;;;;;;13.52;nan;102159.06;4998497;28;20562;-76
2021/04/26 11:37:55;;;;;;;0.88;0.50;;;;;;;13.85;nan;102153.09;4997285;28;20037;-77
2021/04/26 11:40:26;;;;;;;4.00;0.77;;;;;;;14.26;nan;102155.84;4979165;28;20021;-76
2021/04/26 11:42:52;;;;;;;1.73;1.10;;;;;;;14.63;nan;102156.34;4973413;28;20042;-78
2021/04/26 11:45:21;;;;;;;1.38;0.70;;;;;;;14.30;nan;102151.59;4997737;28;20141;-73
2021/04/26 11:47:49;;;;;;;2.10;0.70;;;;;;;14.98;nan;102151.59;4994985;28;20030;-73
2021/04/26 11:50:15;;;;;;;3.05;0.60;;;;;;;16.12;nan;102144.97;4997704;28;20168;-74
2021/04/26 11:52:41;;;;;;;2.70;0.80;;;;;;;16.55;nan;102142.25;4999979;28;20029;-75